createdAt,value
2019-02-20T00:03:11.391Z,93.70
2019-02-20T00:07:16.447Z,93.60
2019-02-20T00:11:21.523Z,93.60
2019-02-20T00:15:26.607Z,93.80
2019-02-20T00:19:31.616Z,94.00
2019-02-20T00:23:36.708Z,94.00
2019-02-20T00:27:41.711Z,94.00
2019-02-20T00:31:46.720Z,94.00
2019-02-20T00:35:51.719Z,94.10
2019-02-20T00:39:56.715Z,94.20
2019-02-20T00:44:03.360Z,94.20
2019-02-20T00:48:18.693Z,94.20
2019-02-20T00:52:34.072Z,94.30
2019-02-20T00:56:39.116Z,94.20
2019-02-20T01:00:44.096Z,94.10
2019-02-20T01:04:49.107Z,94.00
2019-02-20T01:08:54.164Z,94.00
2019-02-20T01:12:59.176Z,94.30
2019-02-20T01:17:04.237Z,94.60
2019-02-20T01:21:09.208Z,94.60
2019-02-20T01:25:14.216Z,94.70
2019-02-20T01:29:19.221Z,94.60
2019-02-20T01:33:24.227Z,94.20
2019-02-20T01:37:29.239Z,94.10
2019-02-20T01:41:34.235Z,94.20
2019-02-20T01:45:39.236Z,94.80
2019-02-20T01:49:44.245Z,94.70
2019-02-20T01:53:49.248Z,94.70
2019-02-20T01:57:54.252Z,95.00
2019-02-20T02:01:59.286Z,94.90
2019-02-20T02:06:04.284Z,94.80
2019-02-20T02:10:09.715Z,94.80
2019-02-20T02:14:14.723Z,95.00
2019-02-20T02:18:19.732Z,95.00
2019-02-20T02:22:24.744Z,95.00
2019-02-20T02:26:29.791Z,95.10
2019-02-20T02:30:34.871Z,95.40
2019-02-20T02:34:39.875Z,95.60
2019-02-20T02:38:44.885Z,95.80
2019-02-20T02:42:49.891Z,95.50
2019-02-20T02:46:54.885Z,95.40
2019-02-20T02:50:59.902Z,95.30
2019-02-20T02:55:05.843Z,95.40
2019-02-20T02:59:10.869Z,95.50
2019-02-20T03:03:15.915Z,95.50
2019-02-20T03:07:20.910Z,95.30
2019-02-20T03:11:25.976Z,95.30
2019-02-20T03:15:30.984Z,95.20
2019-02-20T03:19:35.987Z,95.00
2019-02-20T03:23:41.005Z,94.90
2019-02-20T03:27:46.009Z,94.70
2019-02-20T03:31:51.095Z,94.30
2019-02-20T03:35:56.117Z,94.00
2019-02-20T03:40:01.177Z,94.00
2019-02-20T03:44:06.299Z,94.10
2019-02-20T03:48:11.303Z,94.20
2019-02-20T03:52:16.290Z,94.30
2019-02-20T03:56:21.297Z,94.40
2019-02-20T04:00:26.300Z,94.40
2019-02-20T04:04:31.385Z,94.20
2019-02-20T04:08:36.383Z,94.10
2019-02-20T04:12:41.371Z,93.80
2019-02-20T04:16:46.375Z,93.50
2019-02-20T04:20:51.392Z,93.30
2019-02-20T04:24:56.398Z,93.20
2019-02-20T04:29:01.614Z,92.90
2019-02-20T04:33:06.695Z,92.70
2019-02-20T04:37:11.685Z,92.50
2019-02-20T04:41:16.789Z,92.30
2019-02-20T04:45:21.795Z,92.10
2019-02-20T04:49:26.838Z,92.00
2019-02-20T04:53:31.844Z,91.90
2019-02-20T04:57:37.800Z,91.80
2019-02-20T05:01:43.953Z,91.80
2019-02-20T05:05:48.940Z,91.70
2019-02-20T05:09:54.043Z,91.80
2019-02-20T05:13:59.059Z,91.80
2019-02-20T05:18:04.045Z,91.80
2019-02-20T05:22:09.050Z,91.90
2019-02-20T05:26:14.061Z,91.80
2019-02-20T05:30:19.071Z,91.80
2019-02-20T05:34:24.108Z,91.80
2019-02-20T05:38:29.103Z,91.80
2019-02-20T05:42:34.108Z,91.90
2019-02-20T05:46:39.111Z,91.80
2019-02-20T05:50:44.261Z,91.90
2019-02-20T05:54:49.253Z,91.80
2019-02-20T05:58:54.346Z,91.80
2019-02-20T06:02:59.330Z,91.80
2019-02-20T06:07:04.344Z,92.00
2019-02-20T06:11:14.862Z,91.60
2019-02-20T06:15:15.981Z,91.50
2019-02-20T06:19:21.044Z,91.50
2019-02-20T06:23:26.032Z,91.40
2019-02-20T06:27:31.037Z,91.30
2019-02-20T06:31:36.035Z,91.30
2019-02-20T06:35:41.116Z,91.20
2019-02-20T06:39:46.213Z,91.10
2019-02-20T06:43:51.238Z,90.90
2019-02-20T06:47:56.417Z,90.80
2019-02-20T06:52:01.452Z,90.70
2019-02-20T06:56:06.639Z,90.50
2019-02-20T07:00:13.827Z,90.50
2019-02-20T07:04:18.862Z,90.20
2019-02-20T07:08:41.788Z,90.20
2019-02-20T07:12:49.867Z,90.10
2019-02-20T07:17:01.192Z,90.00
2019-02-20T07:21:18.295Z,90.00
2019-02-20T07:25:50.632Z,89.70
2019-02-20T07:30:00.532Z,89.30
2019-02-20T07:34:05.664Z,89.00
2019-02-20T07:38:10.670Z,88.80
2019-02-20T07:42:15.756Z,88.00
2019-02-20T07:46:20.780Z,86.90
2019-02-20T07:50:25.781Z,86.60
2019-02-20T07:54:30.767Z,85.80
2019-02-20T07:58:35.783Z,85.30
2019-02-20T08:02:40.794Z,85.50
2019-02-20T08:06:46.009Z,85.00
2019-02-20T08:10:51.041Z,84.10
2019-02-20T08:14:56.413Z,83.00
2019-02-20T08:19:01.666Z,83.50
2019-02-20T08:23:06.942Z,82.60
2019-02-20T08:27:13.117Z,82.10
2019-02-20T08:31:18.120Z,81.10
2019-02-20T08:35:23.199Z,79.80
2019-02-20T08:39:28.657Z,78.40
2019-02-20T08:43:33.959Z,77.40
2019-02-20T08:47:39.227Z,76.40
2019-02-20T08:51:44.524Z,75.80
2019-02-20T08:55:49.856Z,75.50
2019-02-20T08:59:55.124Z,71.30
2019-02-20T09:04:00.445Z,60.50
2019-02-20T09:08:05.742Z,56.30
2019-02-20T09:12:11.051Z,55.20
2019-02-20T09:16:16.341Z,57.20
2019-02-20T09:20:21.624Z,58.90
2019-02-20T09:24:26.918Z,58.70
2019-02-20T09:28:32.219Z,55.40
2019-02-20T09:32:37.629Z,53.30
2019-02-20T09:36:42.920Z,49.30
2019-02-20T09:40:48.237Z,48.30
2019-02-20T09:44:53.501Z,44.80
2019-02-20T09:48:58.805Z,43.30
2019-02-20T09:53:04.100Z,41.90
2019-02-20T09:57:09.387Z,40.50
2019-02-20T10:01:14.714Z,38.80
2019-02-20T10:05:19.983Z,37.20
2019-02-20T10:09:25.260Z,35.10
2019-02-20T10:13:30.548Z,34.60
2019-02-20T10:17:35.876Z,34.40
2019-02-20T10:21:41.224Z,36.30
2019-02-20T10:25:47.658Z,37.30
2019-02-20T10:29:52.947Z,36.10
2019-02-20T10:33:58.232Z,36.20
2019-02-20T10:38:03.571Z,39.00
2019-02-20T10:42:08.904Z,41.30
2019-02-20T10:46:14.195Z,42.60
2019-02-20T10:50:19.505Z,43.10
2019-02-20T10:54:24.801Z,43.40
2019-02-20T10:58:30.075Z,42.00
2019-02-20T11:02:35.367Z,40.50
2019-02-20T11:06:40.835Z,41.60
2019-02-20T11:10:46.136Z,42.40
2019-02-20T11:14:51.480Z,44.70
2019-02-20T11:18:56.975Z,46.00
2019-02-20T11:23:02.276Z,47.20
2019-02-20T11:27:07.584Z,48.50
2019-02-20T11:31:12.847Z,48.70
2019-02-20T11:35:18.222Z,48.80
2019-02-20T11:39:23.522Z,48.50
2019-02-20T11:43:28.885Z,46.60
2019-02-20T11:47:34.174Z,43.60
2019-02-20T11:51:39.452Z,40.10
2019-02-20T11:55:44.815Z,39.70
2019-02-20T11:59:50.096Z,40.80
2019-02-20T12:03:55.420Z,40.10
2019-02-20T12:08:00.720Z,41.10
2019-02-20T12:12:06.144Z,40.40
2019-02-20T12:16:11.456Z,41.00
2019-02-20T12:20:17.832Z,41.20
2019-02-20T12:24:23.124Z,43.60
2019-02-20T12:28:28.496Z,45.70
2019-02-20T12:32:33.803Z,45.40
2019-02-20T12:36:39.076Z,46.20
2019-02-20T12:40:44.372Z,48.30
2019-02-20T12:44:49.676Z,49.50
2019-02-20T12:48:55.000Z,50.40
2019-02-20T12:53:00.532Z,52.00
2019-02-20T12:57:05.800Z,52.50
2019-02-20T13:01:11.244Z,52.00
2019-02-20T13:05:16.544Z,51.90
2019-02-20T13:09:22.116Z,52.00
2019-02-20T13:13:27.420Z,50.90
2019-02-20T13:17:33.833Z,49.50
2019-02-20T13:21:39.074Z,50.20
2019-02-20T13:25:44.346Z,48.90
2019-02-20T13:29:49.781Z,49.00
2019-02-20T13:33:55.079Z,49.10
2019-02-20T13:38:00.361Z,50.40
2019-02-20T13:42:05.632Z,51.30
2019-02-20T13:46:11.499Z,52.10
2019-02-20T13:50:16.958Z,53.90
2019-02-20T13:54:23.234Z,54.00
2019-02-20T13:58:28.687Z,53.30
2019-02-20T14:02:34.004Z,53.40
2019-02-20T14:06:39.295Z,53.90
2019-02-20T14:10:45.038Z,54.00
2019-02-20T14:14:50.312Z,54.40
2019-02-20T14:18:55.604Z,55.10
2019-02-20T14:23:00.895Z,55.20
2019-02-20T14:27:10.865Z,56.20
2019-02-20T14:31:13.129Z,56.40
2019-02-20T14:35:18.409Z,56.00
2019-02-20T14:39:23.696Z,57.00
2019-02-20T14:43:28.984Z,58.10
2019-02-20T14:47:34.315Z,59.00
2019-02-20T14:51:39.695Z,59.50
2019-02-20T14:55:44.978Z,59.70
2019-02-20T14:59:50.333Z,60.10
2019-02-20T15:03:55.648Z,60.00
2019-02-20T15:08:02.162Z,59.90
2019-02-20T15:12:07.574Z,60.40
2019-02-20T15:16:12.843Z,61.40
2019-02-20T15:20:18.224Z,62.30
2019-02-20T15:24:26.419Z,63.00
2019-02-20T15:28:33.425Z,63.30
2019-02-20T15:32:38.575Z,64.00
2019-02-20T15:36:43.851Z,64.70
2019-02-20T15:40:49.135Z,65.00
2019-02-20T15:44:54.576Z,65.80
2019-02-20T15:48:59.869Z,65.80
2019-02-20T15:53:06.909Z,66.60
2019-02-20T15:57:12.333Z,66.80
2019-02-20T16:01:17.849Z,67.00
2019-02-20T16:05:22.848Z,67.00
2019-02-20T16:09:28.127Z,66.80
2019-02-20T16:13:33.112Z,66.80
2019-02-20T16:17:38.400Z,67.60
2019-02-20T16:21:43.683Z,68.00
2019-02-20T16:25:48.968Z,68.70
2019-02-20T16:29:55.235Z,69.40
2019-02-20T16:34:00.371Z,69.80
2019-02-20T16:38:05.974Z,70.30
2019-02-20T16:42:11.464Z,70.80
2019-02-20T16:46:17.013Z,71.40
2019-02-20T16:50:22.056Z,71.80
2019-02-20T16:54:27.064Z,72.10
2019-02-20T16:58:32.043Z,72.80
2019-02-20T17:02:37.131Z,73.20
2019-02-20T17:06:45.340Z,73.10
2019-02-20T17:10:50.355Z,73.80
2019-02-20T17:14:55.383Z,74.30
2019-02-20T17:19:00.396Z,74.80
2019-02-20T17:23:05.551Z,75.10
2019-02-20T17:27:10.848Z,75.40
2019-02-20T17:31:15.860Z,75.40
2019-02-20T17:35:20.863Z,75.50
2019-02-20T17:39:25.884Z,76.50
2019-02-20T17:43:30.931Z,75.70
2019-02-20T17:47:35.950Z,75.80
2019-02-20T17:51:41.255Z,75.80
2019-02-20T17:55:46.274Z,75.80
2019-02-20T17:59:52.375Z,76.00
2019-02-20T18:03:57.409Z,76.00
2019-02-20T18:08:04.094Z,75.90
2019-02-20T18:12:09.431Z,76.00
2019-02-20T18:16:14.545Z,76.50
2019-02-20T18:20:19.844Z,76.40
2019-02-20T18:24:26.097Z,76.70
2019-02-20T18:28:31.166Z,76.90
2019-02-20T18:32:36.183Z,78.10
2019-02-20T18:36:41.261Z,77.60
2019-02-20T18:40:46.448Z,78.40
2019-02-20T18:44:51.472Z,79.00
2019-02-20T18:48:56.948Z,79.70
2019-02-20T18:53:01.970Z,79.70
2019-02-20T18:57:06.968Z,80.10
2019-02-20T19:01:12.011Z,80.20
2019-02-20T19:05:18.830Z,80.70
2019-02-20T19:09:24.678Z,81.30
2019-02-20T19:13:47.958Z,81.50
2019-02-20T19:18:20.382Z,81.90
2019-02-20T19:22:43.483Z,81.90
2019-02-20T19:26:51.669Z,82.40
2019-02-20T19:31:14.198Z,82.50
2019-02-20T19:35:25.315Z,82.70
2019-02-20T19:39:36.087Z,83.00
2019-02-20T19:43:50.200Z,83.40
2019-02-20T19:48:16.367Z,83.60
2019-02-20T19:52:32.359Z,83.50
2019-02-20T19:57:02.357Z,84.10
2019-02-20T20:01:19.804Z,84.30
2019-02-20T20:05:53.158Z,85.10
2019-02-20T20:10:18.220Z,85.90
2019-02-20T20:14:44.771Z,86.10
2019-02-20T20:19:13.658Z,86.10
2019-02-20T20:23:50.966Z,85.70
2019-02-20T20:28:15.819Z,85.10
2019-02-20T20:32:52.573Z,84.70
2019-02-20T20:36:54.101Z,84.40
2019-02-20T20:41:04.831Z,84.40
2019-02-20T20:45:37.441Z,84.60
2019-02-20T20:49:51.314Z,84.50
2019-02-20T20:54:08.289Z,84.50
2019-02-20T20:58:28.176Z,84.60
2019-02-20T21:02:36.280Z,85.00
2019-02-20T21:06:56.466Z,85.20
2019-02-20T21:11:13.412Z,85.50
2019-02-20T21:15:39.200Z,86.20
2019-02-20T21:20:12.697Z,86.30
2019-02-20T21:24:29.592Z,86.70
2019-02-20T21:28:53.079Z,87.00
2019-02-20T21:33:20.672Z,87.50
2019-02-20T21:37:34.616Z,87.30
2019-02-20T21:41:57.544Z,87.70
2019-02-20T21:46:14.311Z,88.00
2019-02-20T21:50:34.355Z,88.30
2019-02-20T21:55:03.011Z,88.40
2019-02-20T21:59:38.988Z,88.80
2019-02-20T22:03:44.408Z,89.20
2019-02-20T22:08:01.332Z,88.80
2019-02-20T22:12:36.832Z,88.80
2019-02-20T22:16:50.716Z,88.30
2019-02-20T22:21:18.120Z,88.30
2019-02-20T22:25:26.204Z,88.80
2019-02-20T22:29:54.822Z,89.20
2019-02-20T22:34:05.699Z,89.30
2019-02-20T22:38:28.752Z,90.00
2019-02-20T22:42:56.380Z,90.10
2019-02-20T22:47:19.539Z,90.30
2019-02-20T22:51:27.711Z,90.40
2019-02-20T22:55:59.940Z,90.60
2019-02-20T23:00:43.004Z,90.80
2019-02-20T23:05:12.186Z,90.80
2019-02-20T23:09:46.208Z,90.70
2019-02-20T23:14:28.079Z,90.80
2019-02-20T23:18:33.092Z,91.00
2019-02-20T23:22:38.153Z,91.00
2019-02-20T23:26:43.151Z,91.10
2019-02-20T23:30:48.161Z,91.20
2019-02-20T23:34:53.175Z,91.30
2019-02-20T23:38:58.179Z,91.50
2019-02-20T23:43:03.231Z,91.70
2019-02-20T23:47:08.301Z,91.70
2019-02-20T23:51:14.458Z,91.70
2019-02-20T23:55:19.392Z,91.80
2019-02-20T23:59:24.493Z,91.90
